地図

経路データ

SID SEASON NUMBER BASIN SUBBASIN NAME ISO_TIME NATURE LAT LON WMO_WIND WMO_PRES WMO_AGENCY TRACK_TYPE DIST2LAND LANDFALL IFLAG USA_AGENCY USA_ATCF_ID USA_LAT USA_LON USA_RECORD USA_STATUS USA_WIND USA_PRES USA_SSHS USA_R34_NE USA_R34_SE USA_R34_SW USA_R34_NW USA_R50_NE USA_R50_SE USA_R50_SW USA_R50_NW USA_R64_NE USA_R64_SE USA_R64_SW USA_R64_NW USA_POCI USA_ROCI USA_RMW USA_EYE TOKYO_LAT TOKYO_LON TOKYO_GRADE TOKYO_WIND TOKYO_PRES TOKYO_R50_DIR TOKYO_R50_LONG TOKYO_R50_SHORT TOKYO_R30_DIR TOKYO_R30_LONG TOKYO_R30_SHORT TOKYO_LAND CMA_LAT CMA_LON CMA_CAT CMA_WIND CMA_PRES HKO_LAT HKO_LON HKO_CAT HKO_WIND HKO_PRES NEWDELHI_LAT NEWDELHI_LON NEWDELHI_GRADE NEWDELHI_WIND NEWDELHI_PRES NEWDELHI_CI NEWDELHI_DP NEWDELHI_POCI REUNION_LAT REUNION_LON REUNION_TYPE REUNION_WIND REUNION_PRES REUNION_TNUM REUNION_CI REUNION_RMW REUNION_R34_NE REUNION_R34_SE REUNION_R34_SW REUNION_R34_NW REUNION_R50_NE REUNION_R50_SE REUNION_R50_SW REUNION_R50_NW REUNION_R64_NE REUNION_R64_SE REUNION_R64_SW REUNION_R64_NW BOM_LAT BOM_LON BOM_TYPE BOM_WIND BOM_PRES BOM_TNUM BOM_CI BOM_RMW BOM_R34_NE BOM_R34_SE BOM_R34_SW BOM_R34_NW BOM_R50_NE BOM_R50_SE BOM_R50_SW BOM_R50_NW BOM_R64_NE BOM_R64_SE BOM_R64_SW BOM_R64_NW BOM_ROCI BOM_POCI BOM_EYE BOM_POS_METHOD BOM_PRES_METHOD NADI_LAT NADI_LON NADI_CAT NADI_WIND NADI_PRES WELLINGTON_LAT WELLINGTON_LON WELLINGTON_WIND WELLINGTON_PRES DS824_LAT DS824_LON DS824_STAGE DS824_WIND DS824_PRES TD9636_LAT TD9636_LON TD9636_STAGE TD9636_WIND TD9636_PRES TD9635_LAT TD9635_LON TD9635_WIND TD9635_PRES TD9635_ROCI NEUMANN_LAT NEUMANN_LON NEUMANN_CLASS NEUMANN_WIND NEUMANN_PRES MLC_LAT MLC_LON MLC_CLASS MLC_WIND MLC_PRES USA_GUST BOM_GUST BOM_GUST_PER REUNION_GUST REUNION_GUST_PER USA_SEAHGT USA_SEARAD_NE USA_SEARAD_SE USA_SEARAD_SW USA_SEARAD_NW STORM_SPEED STORM_DIR
1879355S15054 1880 38 SI MM NOT_NAMED 1879-12-20 18:00:00 NR -15.2000 54.4000 main 418 407 __________O___ -1 -15.2000 54.4000 7 3 201
1879355S15054 1880 38 SI MM NOT_NAMED 1879-12-20 21:00:00 NR -15.3281 54.3374 main 407 407 __________P___ -1 -15.3281 54.3374 7 3 204
1879355S15054 1880 38 SI MM NOT_NAMED 1879-12-21 00:00:00 NR -15.4750 54.2699 main 407 396 __________P___ -1 -15.4750 54.2699 7 4 202
1879355S15054 1880 38 SI MM NOT_NAMED 1879-12-21 03:00:00 NR -15.6594 54.1924 main 397 388 __________P___ -1 -15.6594 54.1924 7 5 201
1879355S15054 1880 38 SI MM NOT_NAMED 1879-12-21 06:00:00 NR -15.9000 54.1000 main 389 380 __________O___ -1 -15.9000 54.1000 7 6 199
1879355S15054 1880 38 SI MM NOT_NAMED 1879-12-21 09:00:00 NR -16.2078 53.9895 main 385 377 __________P___ -1 -16.2078 53.9895 7 7 199
1879355S15054 1880 38 SI MM NOT_NAMED 1879-12-21 12:00:00 NR -16.5625 53.8652 main 387 377 __________P___ -1 -16.5625 53.8652 7 8 199
1879355S15054 1880 38 SI MM NOT_NAMED 1879-12-21 15:00:00 NR -16.9360 53.7332 main 380 380 __________P___ -1 -16.9360 53.7332 7 8 199
1879355S15054 1880 38 SI MM NOT_NAMED 1879-12-21 18:00:00 NR -17.3000 53.6000 main 389 384 __________O___ -1 -17.3000 53.6000 7 7 200
1879355S15054 1880 38 SI MM NOT_NAMED 1879-12-21 21:00:00 NR -17.6102 53.4828 main 394 390 __________P___ -1 -17.6102 53.4828 7 7 200
1879355S15054 1880 38 SI MM NOT_NAMED 1879-12-22 00:00:00 NR -17.9074 53.3646 main 399 376 __________P___ -1 -17.9074 53.3646 7 6 201
1879355S15054 1880 38 SI MM NOT_NAMED 1879-12-22 03:00:00 NR -18.2009 53.2390 main 382 362 __________P___ -1 -18.2009 53.2390 7 6 203
1879355S15054 1880 38 SI MM NOT_NAMED 1879-12-22 06:00:00 NR -18.5000 53.1000 main 362 344 __________O___ -1 -18.5000 53.1000 7 7 205
1879355S15054 1880 38 SI MM NOT_NAMED 1879-12-22 09:00:00 NR -18.8179 52.9313 main 351 335 __________P___ -1 -18.8179 52.9313 7 7 207
1879355S15054 1880 38 SI MM NOT_NAMED 1879-12-22 12:00:00 NR -19.1426 52.7501 main 335 324 __________P___ -1 -19.1426 52.7501 7 7 208
1879355S15054 1880 38 SI MM NOT_NAMED 1879-12-22 15:00:00 NR -19.4710 52.5688 main 324 321 __________P___ -1 -19.4710 52.5688 7 7 207
1879355S15054 1880 38 SI MM NOT_NAMED 1879-12-22 18:00:00 NR -19.8000 52.4000 main 325 320 __________O___ -1 -19.8000 52.4000 7 7 204
1879355S15054 1880 38 SI MM NOT_NAMED 1879-12-22 21:00:00 NR -20.1289 52.2644 main 321 318 __________P___ -1 -20.1289 52.2644 7 7 200
1879355S15054 1880 38 SI MM NOT_NAMED 1879-12-23 00:00:00 NR -20.4573 52.1421 main 329 325 __________P___ -1 -20.4573 52.1421 7 7 199
1879355S15054 1880 38 SI MM NOT_NAMED 1879-12-23 03:00:00 NR -20.7821 52.0237 main 333 332 __________P___ -1 -20.7821 52.0237 7 7 200
1879355S15054 1880 38 SI MM NOT_NAMED 1879-12-23 06:00:00 NR -21.1000 51.9000 main 342 339 __________O___ -1 -21.1000 51.9000 7 7 202
1879355S15054 1880 38 SI MM NOT_NAMED 1879-12-23 09:00:00 NR -21.4072 51.7570 main 349 338 __________P___ -1 -21.4072 51.7570 7 7 204
1879355S15054 1880 38 SI MM NOT_NAMED 1879-12-23 12:00:00 NR -21.7075 51.6073 main 340 333 __________P___ -1 -21.7075 51.6073 7 7 205
1879355S15054 1880 38 SI MM NOT_NAMED 1879-12-23 15:00:00 NR -22.0040 51.4539 main 337 322 __________P___ -1 -22.0040 51.4539 7 7 206
1879355S15054 1880 38 SI MM NOT_NAMED 1879-12-23 18:00:00 NR -22.3000 51.3000 main 324 316 __________O___ -1 -22.3000 51.3000 7 7 205
1879355S15054 1880 38 SI MM NOT_NAMED 1879-12-23 21:00:00 NR -22.5979 51.1481 main 311 308 __________P___ -1 -22.5979 51.1481 7 7 205
1879355S15054 1880 38 SI MM NOT_NAMED 1879-12-24 00:00:00 NR -22.8976 50.9980 main 313 308 __________P___ -1 -22.8976 50.9980 7 7 205
1879355S15054 1880 38 SI MM NOT_NAMED 1879-12-24 03:00:00 NR -23.1985 50.8489 main 307 301 __________P___ -1 -23.1985 50.8489 7 7 205
1879355S15054 1880 38 SI MM NOT_NAMED 1879-12-24 06:00:00 NR -23.5000 50.7000 main 303 __________O___ -1 -23.5000 50.7000 7 7 204

IBTrACS Databaseについて

本データベースは、米国NOAAが公開する1842年以降の世界の熱帯低気圧のベストトラックデータアーカイブInternational Best Track Archive for Climate Stewardship (IBTrACS)を、ウェブで閲覧しやすい形式に変換したものです。

最終更新日:2021-11-26